Time;durP1;ratioP1;P1;durP2;ratioP2;P2;SDS_P1;SDS_P2;PMS_P1;PMS_P2;Temp;Humidity;BMP_temperature;BMP_pressure;BME280_temperature;BME280_humidity;BME280_pressure;Samples;Min_cycle;Max_cycle;Signal;HPM_P1;HPM_P2
2023/01/19 00:00:00;;;;;;;1.35;0.85;;;;;;;-140.72;100.00;53245.22;6272279;22;20023;-69
2023/01/19 00:02:25;;;;;;;0.77;0.45;;;;;;;-140.72;100.00;53202.59;6270956;22;20313;-68
2023/01/19 00:04:51;;;;;;;0.40;0.40;;;;;;;-140.72;100.00;53231.00;6269560;22;20394;-69
2023/01/19 00:07:16;;;;;;;0.70;0.47;;;;;;;-140.72;100.00;53218.81;6272757;22;20322;-69
2023/01/19 00:09:42;;;;;;;2.33;0.50;;;;;;;-140.72;100.00;53222.88;6271642;22;20004;-69
2023/01/19 00:12:07;;;;;;;1.98;0.35;;;;;;;-140.72;100.00;53263.47;6271545;22;20008;-69
2023/01/19 00:14:32;;;;;;;0.38;0.32;;;;;;;-140.72;100.00;53220.84;6271549;22;20284;-69
2023/01/19 00:17:00;;;;;;;6.00;0.98;;;;;;;-140.72;100.00;53222.88;6272124;22;20007;-69
2023/01/19 00:19:26;;;;;;;4.40;1.15;;;;;;;-140.72;100.00;53251.31;6274404;22;20318;-69
2023/01/19 00:21:51;;;;;;;3.42;0.60;;;;;;;-140.72;100.00;53218.81;6274173;22;19999;-67
2023/01/19 00:24:16;;;;;;;1.52;0.98;;;;;;;-140.72;100.00;53283.78;6272620;22;20406;-68
2023/01/19 00:26:42;;;;;;;0.98;0.40;;;;;;;-140.72;100.00;53235.06;6273812;22;20000;-69
2023/01/19 00:29:09;;;;;;;0.20;0.20;;;;;;;-140.72;100.00;53263.47;6274289;22;20413;-68
2023/01/19 00:31:35;;;;;;;0.22;0.20;;;;;;;-140.72;100.00;53253.31;6272976;22;20000;-68
2023/01/19 00:34:01;;;;;;;0.22;0.22;;;;;;;-140.72;100.00;53259.41;6273684;22;20007;-68
2023/01/19 00:36:27;;;;;;;2.50;0.30;;;;;;;-140.72;100.00;53271.59;6273400;22;20023;-68
2023/01/19 00:38:52;;;;;;;0.17;0.13;;;;;;;-140.72;100.00;53269.56;6273117;22;20002;-69
2023/01/19 00:41:18;;;;;;;0.30;0.30;;;;;;;-140.72;100.00;53279.72;6273751;22;20314;-67
2023/01/19 00:43:43;;;;;;;0.28;0.20;;;;;;;-140.72;100.00;53249.28;6274804;22;20403;-67
2023/01/19 00:46:09;;;;;;;0.20;0.20;;;;;;;-140.72;100.00;53259.41;6274157;22;20003;-69
2023/01/19 00:48:34;;;;;;;2.10;0.20;;;;;;;-140.72;100.00;53263.47;6272859;22;20002;-67
2023/01/19 00:51:00;;;;;;;0.88;0.50;;;;;;;-140.72;100.00;53239.13;6273482;22;20006;-68
2023/01/19 00:53:27;;;;;;;4.57;1.08;;;;;;;-140.72;100.00;53257.38;6272681;22;20015;-67
2023/01/19 00:55:53;;;;;;;0.68;0.32;;;;;;;-140.72;100.00;53206.66;6273966;22;20408;-68
2023/01/19 00:58:19;;;;;;;0.63;0.30;;;;;;;-140.72;100.00;53218.81;6273577;22;20113;-69
2023/01/19 01:00:44;;;;;;;0.20;0.20;;;;;;;-140.72;100.00;53245.22;6272483;22;20361;-68
2023/01/19 01:03:10;;;;;;;0.20;0.20;;;;;;;-140.72;100.00;53253.31;6273771;22;20003;-69
2023/01/19 01:05:38;;;;;;;0.15;0.15;;;;;;;-140.72;100.00;53271.59;6270810;22;19999;-68
2023/01/19 01:08:04;;;;;;;1.65;0.40;;;;;;;-140.72;100.00;53255.34;6272352;22;20397;-69
2023/01/19 01:10:29;;;;;;;2.90;0.47;;;;;;;-140.72;100.00;53263.47;6271889;22;20000;-68
2023/01/19 01:12:55;;;;;;;4.25;0.60;;;;;;;-140.72;100.00;53289.88;6273152;22;20098;-67
2023/01/19 01:15:20;;;;;;;1.02;0.28;;;;;;;-140.72;100.00;53247.25;6273121;22;20007;-68
2023/01/19 01:17:46;;;;;;;1.35;0.50;;;;;;;-140.72;100.00;53192.44;6273421;22;20341;-68
2023/01/19 01:20:22;;;;;;;0.73;0.57;;;;;;;-140.72;100.00;53275.66;6272505;22;20295;-70
2023/01/19 01:22:53;;;;;;;0.25;0.25;;;;;;;-140.72;100.00;53226.94;6273460;22;19999;-68
2023/01/19 01:25:21;;;;;;;7.78;0.60;;;;;;;-140.72;100.00;53224.91;6273843;22;20004;-69
2023/01/19 01:27:47;;;;;;;2.10;0.40;;;;;;;-140.72;100.00;53239.13;6272360;22;20343;-69
2023/01/19 01:30:14;;;;;;;0.55;0.30;;;;;;;-140.72;100.00;53289.88;6273018;22;20060;-67
2023/01/19 01:32:40;;;;;;;3.03;0.30;;;;;;;-140.72;100.00;53277.69;6273295;22;20323;-67
2023/01/19 01:35:07;;;;;;;0.47;0.22;;;;;;;-140.72;100.00;53285.81;6272671;22;20011;-68
2023/01/19 01:37:36;;;;;;;3.53;0.75;;;;;;;-140.72;100.00;53231.00;6273146;22;20003;-67
2023/01/19 01:40:03;;;;;;;5.25;0.55;;;;;;;-140.72;100.00;53289.88;6272452;22;20007;-67
2023/01/19 01:42:31;;;;;;;0.25;0.17;;;;;;;-140.72;100.00;53259.41;6272089;22;20007;-67
2023/01/19 01:45:04;;;;;;;0.20;0.20;;;;;;;-140.72;100.00;53239.13;6273508;22;20300;-67
2023/01/19 01:47:46;;;;;;;0.10;0.10;;;;;;;-140.72;100.00;53281.75;6273045;22;20000;-67
2023/01/19 01:50:22;;;;;;;2.22;0.43;;;;;;;-140.72;100.00;53267.53;6272491;22;20011;-67
2023/01/19 01:52:54;;;;;;;0.20;0.20;;;;;;;-140.72;100.00;53295.94;6273107;22;20031;-67
2023/01/19 01:55:22;;;;;;;3.90;0.43;;;;;;;-140.72;100.00;53269.56;6271481;22;20004;-67
2023/01/19 01:57:56;;;;;;;0.40;0.30;;;;;;;-140.72;100.00;53235.06;6271839;22;20003;-67
2023/01/19 02:00:22;;;;;;;4.35;0.30;;;;;;;-140.72;100.00;53295.94;6273088;22;19995;-67
2023/01/19 02:02:50;;;;;;;0.47;0.20;;;;;;;-140.72;100.00;53235.06;6271668;22;20029;-67
2023/01/19 02:05:28;;;;;;;2.25;0.40;;;;;;;-140.72;100.00;53263.47;6272829;22;20023;-70
2023/01/19 02:13:29;;;;;;;0.38;0.30;;;;;;;-140.72;100.00;53312.19;6272675;22;20017;-69
2023/01/19 02:15:58;;;;;;;0.25;0.22;;;;;;;-140.72;100.00;53283.78;6273020;22;20049;-68
2023/01/19 02:18:27;;;;;;;1.45;0.38;;;;;;;-140.72;100.00;53275.66;6272444;22;20023;-66
2023/01/19 02:20:59;;;;;;;0.52;0.45;;;;;;;-140.72;100.00;53235.06;6273320;22;20061;-68
2023/01/19 02:23:46;;;;;;;1.33;0.40;;;;;;;-140.72;100.00;53267.53;6272637;22;20008;-68
2023/01/19 02:26:18;;;;;;;2.00;0.65;;;;;;;-140.72;100.00;53275.66;6272942;22;20317;-69
2023/01/19 02:28:49;;;;;;;0.40;0.40;;;;;;;-140.72;100.00;53308.13;6272378;22;20066;-67
2023/01/19 02:31:18;;;;;;;0.28;0.20;;;;;;;-140.72;100.00;53322.34;6272012;22;20003;-68
2023/01/19 02:33:44;;;;;;;0.20;0.20;;;;;;;-140.72;100.00;53271.59;6272691;22;20012;-68
2023/01/19 02:36:14;;;;;;;0.20;0.20;;;;;;;-140.72;100.00;53269.56;6272079;22;20038;-66
2023/01/19 02:38:42;;;;;;;0.20;0.20;;;;;;;-140.72;100.00;53273.63;6271517;22;20000;-66
2023/01/19 02:41:11;;;;;;;0.10;0.10;;;;;;;-140.72;100.00;53273.63;6272376;22;20121;-66
2023/01/19 02:43:37;;;;;;;0.20;0.20;;;;;;;-140.72;100.00;53320.31;6272765;22;20004;-66
2023/01/19 02:46:03;;;;;;;0.25;0.25;;;;;;;-140.72;100.00;53259.41;6270761;22;20514;-66
2023/01/19 02:48:28;;;;;;;0.35;0.17;;;;;;;-140.72;100.00;53293.91;6272500;22;20054;-67
2023/01/19 02:51:02;;;;;;;1.23;0.63;;;;;;;-140.72;100.00;53259.41;6272082;22;20113;-67
2023/01/19 02:53:56;;;;;;;3.42;0.60;;;;;;;-140.72;100.00;53312.19;6271918;22;20030;-67
2023/01/19 02:56:48;;;;;;;4.82;0.57;;;;;;;-140.72;100.00;53265.50;6272481;22;20004;-67
2023/01/19 03:00:08;;;;;;;0.90;0.30;;;;;;;-140.72;100.00;53285.81;6271827;22;20425;-66
2023/01/19 03:02:42;;;;;;;;;;;;;;;-140.72;100.00;53269.56;6192113;22;20022;-67
2023/01/19 03:05:30;;;;;;;0.68;0.52;;;;;;;-140.72;100.00;53273.63;6272517;22;19911;-65
2023/01/19 03:07:58;;;;;;;0.38;0.30;;;;;;;-140.72;100.00;53291.88;6271776;22;19996;-68
2023/01/19 03:10:45;;;;;;;0.65;0.38;;;;;;;-140.72;100.00;53316.25;6272753;22;20079;-67
2023/01/19 03:13:13;;;;;;;3.60;0.70;;;;;;;-140.72;100.00;53267.53;6271889;22;20010;-68
2023/01/19 03:16:11;;;;;;;0.88;0.38;;;;;;;-140.72;100.00;53249.28;6272247;22;20060;-67
2023/01/19 03:18:38;;;;;;;0.63;0.43;;;;;;;-140.72;100.00;53287.84;6272044;22;20075;-66
2023/01/19 03:21:06;;;;;;;0.10;0.10;;;;;;;-140.72;100.00;53287.84;6271510;22;20426;-68
2023/01/19 03:23:35;;;;;;;0.20;0.20;;;;;;;-140.72;100.00;53249.28;6272215;22;19996;-68
2023/01/19 03:26:04;;;;;;;0.28;0.20;;;;;;;-140.72;100.00;53312.19;6272524;22;20382;-66
2023/01/19 03:28:31;;;;;;;0.22;0.22;;;;;;;-140.72;100.00;53289.88;6271059;22;20003;-68
2023/01/19 03:31:00;;;;;;;4.57;0.57;;;;;;;-140.72;100.00;53293.91;6272914;22;20008;-68
2023/01/19 03:33:32;;;;;;;7.80;0.60;;;;;;;-140.72;100.00;53261.44;6270153;22;20488;-67
2023/01/19 03:36:07;;;;;;;2.55;0.75;;;;;;;-140.72;100.00;53308.13;6271404;22;20222;-68
2023/01/19 03:38:37;;;;;;;3.97;0.30;;;;;;;-140.72;100.00;53273.63;6271633;22;20022;-68
2023/01/19 03:41:09;;;;;;;0.20;0.20;;;;;;;-140.72;100.00;53332.47;6271520;22;20057;-68
2023/01/19 03:43:36;;;;;;;8.38;0.95;;;;;;;-140.72;100.00;53297.97;6271610;22;20003;-68
2023/01/19 03:46:03;;;;;;;3.42;0.75;;;;;;;-140.72;100.00;53310.16;6272467;22;20006;-68
2023/01/19 03:48:30;;;;;;;7.18;0.60;;;;;;;-140.72;100.00;53263.47;6270900;22;20046;-67
2023/01/19 03:50:55;;;;;;;4.10;0.68;;;;;;;-140.72;100.00;53306.09;6272076;22;19999;-67
2023/01/19 03:53:21;;;;;;;0.40;0.40;;;;;;;-140.72;100.00;53322.34;6274081;22;20007;-68
2023/01/19 03:55:50;;;;;;;0.60;0.30;;;;;;;-140.72;100.00;53281.75;6273594;22;19999;-68
2023/01/19 03:58:16;;;;;;;2.72;0.60;;;;;;;-140.72;100.00;53314.22;6245354;22;20004;-66
2023/01/19 04:00:47;;;;;;;1.73;0.60;;;;;;;-140.72;100.00;53275.66;6272129;22;20291;-67
2023/01/19 04:03:17;;;;;;;0.70;0.45;;;;;;;-140.72;100.00;53289.88;6272235;22;20034;-68
2023/01/19 04:05:44;;;;;;;1.05;0.47;;;;;;;-140.72;100.00;53287.84;6272519;22;20000;-68
2023/01/19 04:08:10;;;;;;;4.57;0.85;;;;;;;-140.72;100.00;53291.88;6270796;22;20003;-68
2023/01/19 04:10:36;;;;;;;1.73;0.50;;;;;;;-140.72;100.00;53293.91;6271739;22;20078;-69
2023/01/19 04:13:05;;;;;;;3.67;0.70;;;;;;;-140.72;100.00;53295.94;6272590;22;19996;-68
2023/01/19 04:15:31;;;;;;;2.53;0.50;;;;;;;-140.72;100.00;53279.72;6271961;22;20014;-68
2023/01/19 04:17:58;;;;;;;10.07;2.33;;;;;;;-140.72;100.00;53283.78;6271605;22;20326;-68
2023/01/19 04:20:25;;;;;;;1.88;0.70;;;;;;;-140.72;100.00;53304.06;6272272;22;20070;-68
2023/01/19 04:22:51;;;;;;;8.32;1.75;;;;;;;-140.72;100.00;53318.28;6272525;22;20310;-67
2023/01/19 04:25:16;;;;;;;2.47;0.60;;;;;;;-140.72;100.00;53285.81;6272164;22;19995;-68
2023/01/19 04:27:44;;;;;;;3.17;1.00;;;;;;;-140.72;100.00;53281.75;6272925;22;20075;-68
2023/01/19 04:30:19;;;;;;;5.50;0.85;;;;;;;-140.72;100.00;53285.81;6272584;22;19999;-68
2023/01/19 04:32:56;;;;;;;13.93;1.65;;;;;;;-140.72;100.00;53302.03;6271920;22;20393;-68
2023/01/19 04:35:22;;;;;;;8.60;1.27;;;;;;;-140.72;100.00;53291.88;6272315;22;20018;-69
2023/01/19 04:37:47;;;;;;;8.18;0.82;;;;;;;-140.72;100.00;53295.94;6271112;22;20334;-67
2023/01/19 04:40:13;;;;;;;14.35;1.13;;;;;;;-140.72;100.00;53259.41;6272355;22;20000;-68
2023/01/19 04:42:43;;;;;;;5.38;0.82;;;;;;;-140.72;100.00;53289.88;6271388;22;20023;-68
2023/01/19 04:45:09;;;;;;;12.30;1.60;;;;;;;-140.72;100.00;53297.97;6271341;22;20075;-68
2023/01/19 04:47:35;;;;;;;10.13;0.82;;;;;;;-140.72;100.00;53293.91;6271100;22;20059;-69
2023/01/19 04:50:00;;;;;;;5.35;1.00;;;;;;;-140.72;100.00;53265.50;6271803;22;20423;-67
2023/01/19 04:52:33;;;;;;;4.40;0.52;;;;;;;-140.72;100.00;53285.81;6270334;22;20398;-68
2023/01/19 04:54:59;;;;;;;8.65;0.95;;;;;;;-140.72;100.00;53287.84;6271351;22;20011;-68
2023/01/19 04:57:25;;;;;;;3.92;1.20;;;;;;;-140.72;100.00;53324.38;6271028;22;20369;-68
2023/01/19 04:59:50;;;;;;;11.40;1.08;;;;;;;-140.72;100.00;53295.94;6270037;22;20008;-68
2023/01/19 05:02:16;;;;;;;2.75;1.02;;;;;;;-140.72;100.00;53267.53;6271694;22;20000;-67
2023/01/19 05:04:44;;;;;;;7.88;1.17;;;;;;;-140.72;100.00;53336.53;6272675;22;20091;-67
2023/01/19 05:07:10;;;;;;;6.38;0.70;;;;;;;-140.72;100.00;53265.50;6272609;22;19999;-68
2023/01/19 05:09:35;;;;;;;1.92;0.85;;;;;;;-140.72;100.00;53287.84;6273096;22;20279;-68
2023/01/19 05:12:01;;;;;;;9.68;0.93;;;;;;;-140.72;100.00;53297.97;6272980;22;19995;-68
2023/01/19 05:14:30;;;;;;;15.45;1.73;;;;;;;-140.72;100.00;53302.03;6271668;22;20016;-67
2023/01/19 05:16:55;;;;;;;6.13;1.15;;;;;;;-140.72;100.00;53283.78;6273634;22;20007;-68
2023/01/19 05:19:24;;;;;;;5.55;1.15;;;;;;;-140.72;100.00;53304.06;6272973;22;20003;-68
2023/01/19 05:21:49;;;;;;;11.57;1.60;;;;;;;-140.72;100.00;53259.41;6273409;22;20011;-68
2023/01/19 05:24:14;;;;;;;2.25;0.60;;;;;;;-140.72;100.00;53283.78;6273888;22;19996;-67
2023/01/19 05:26:42;;;;;;;13.80;0.85;;;;;;;-140.72;100.00;53273.63;6272395;22;19995;-69
2023/01/19 05:29:08;;;;;;;3.35;0.77;;;;;;;-140.72;100.00;53275.66;6274101;22;20003;-69
2023/01/19 05:31:37;;;;;;;6.32;1.05;;;;;;;-140.72;100.00;53255.34;6273382;22;19999;-68
2023/01/19 05:34:03;;;;;;;6.13;1.08;;;;;;;-140.72;100.00;53316.25;6271090;22;20007;-69
2023/01/19 05:36:29;;;;;;;14.50;1.48;;;;;;;-140.72;100.00;53253.31;6272609;22;20034;-69
2023/01/19 05:38:55;;;;;;;11.15;2.25;;;;;;;-140.72;100.00;53275.66;6273930;22;20035;-70
2023/01/19 05:41:20;;;;;;;12.88;1.10;;;;;;;-140.72;100.00;53267.53;6273171;22;19992;-69
2023/01/19 05:43:45;;;;;;;8.57;1.15;;;;;;;-140.72;100.00;53295.94;6273751;22;20057;-67
2023/01/19 05:46:11;;;;;;;3.45;1.13;;;;;;;-140.72;100.00;53332.47;6273976;22;19999;-70
2023/01/19 05:48:37;;;;;;;5.78;1.20;;;;;;;-140.72;100.00;53320.31;6273332;22;20333;-70
2023/01/19 05:51:04;;;;;;;6.57;0.85;;;;;;;-140.72;100.00;53283.78;6274060;22;20075;-69
2023/01/19 05:53:30;;;;;;;1.98;1.00;;;;;;;-140.72;100.00;53291.88;6273640;22;20339;-69
2023/01/19 05:56:09;;;;;;;3.28;0.98;;;;;;;-140.72;100.00;53291.88;6272732;22;20025;-70
2023/01/19 05:58:40;;;;;;;9.90;1.13;;;;;;;-140.72;100.00;53302.03;6273345;22;20357;-69
2023/01/19 06:01:08;;;;;;;8.05;1.15;;;;;;;-140.72;100.00;53293.91;6274253;22;20255;-69
2023/01/19 06:03:35;;;;;;;5.22;1.40;;;;;;;-140.72;100.00;53300.00;6272445;22;20022;-70
2023/01/19 06:06:02;;;;;;;2.83;0.75;;;;;;;-140.72;100.00;53257.38;6273920;22;20007;-69
2023/01/19 06:08:28;;;;;;;11.05;2.15;;;;;;;-140.72;100.00;53269.56;6273637;22;20296;-69
2023/01/19 06:10:53;;;;;;;13.18;1.30;;;;;;;-140.72;100.00;53291.88;6273103;22;20010;-70
2023/01/19 06:13:19;;;;;;;7.30;1.17;;;;;;;-140.72;100.00;53308.13;6273426;22;20023;-69
2023/01/19 06:15:44;;;;;;;2.60;1.00;;;;;;;-140.72;100.00;53279.72;6271749;22;20321;-68
2023/01/19 06:18:11;;;;;;;9.70;1.55;;;;;;;-140.72;100.00;53295.94;6246596;22;20428;-68
2023/01/19 06:20:37;;;;;;;2.70;0.52;;;;;;;-140.72;100.00;53306.09;6273730;22;19999;-68
2023/01/19 06:23:15;;;;;;;4.55;1.58;;;;;;;-140.72;100.00;53326.41;6271123;22;20022;-68
2023/01/19 06:25:40;;;;;;;8.20;1.73;;;;;;;-140.72;100.00;53289.88;6272634;22;19995;-69
2023/01/19 06:28:06;;;;;;;6.22;0.60;;;;;;;-140.72;100.00;53300.00;6273732;22;19999;-69
2023/01/19 06:30:31;;;;;;;5.47;1.50;;;;;;;-140.72;100.00;53352.78;6272275;22;20007;-69
2023/01/19 06:32:56;;;;;;;7.30;0.70;;;;;;;-140.72;100.00;53302.03;6272848;22;20003;-69
2023/01/19 06:35:22;;;;;;;4.38;0.93;;;;;;;-140.72;100.00;53295.94;6272882;22;20051;-69
2023/01/19 06:37:47;;;;;;;2.80;0.80;;;;;;;-140.72;100.00;53273.63;6272429;22;20003;-69
2023/01/19 06:40:13;;;;;;;8.10;1.00;;;;;;;-140.72;100.00;53304.06;6273228;22;19999;-68
2023/01/19 06:42:38;;;;;;;9.63;1.38;;;;;;;-140.72;100.00;53259.41;6272507;22;20314;-70
2023/01/19 06:45:04;;;;;;;4.15;0.73;;;;;;;-140.72;100.00;53281.75;6271781;22;20034;-68
2023/01/19 06:47:29;;;;;;;2.92;0.82;;;;;;;-140.72;100.00;53281.75;6273532;22;20019;-69
2023/01/19 06:49:55;;;;;;;2.78;0.70;;;;;;;-140.72;100.00;53285.81;6273280;22;20061;-68
2023/01/19 06:52:20;;;;;;;10.25;0.95;;;;;;;-140.72;100.00;53306.09;6271973;22;20430;-68
2023/01/19 06:54:46;;;;;;;6.75;1.20;;;;;;;-140.72;100.00;53306.09;6273647;22;20000;-67
2023/01/19 06:57:12;;;;;;;10.63;1.45;;;;;;;-140.72;100.00;53291.88;6272559;22;20023;-69
2023/01/19 06:59:38;;;;;;;5.22;1.58;;;;;;;-140.72;100.00;53281.75;6272385;22;20303;-69
2023/01/19 07:02:04;;;;;;;18.13;1.58;;;;;;;-140.72;100.00;53295.94;6274029;22;19995;-68
2023/01/19 07:04:29;;;;;;;5.22;0.80;;;;;;;-140.72;100.00;53239.13;6273392;22;20287;-68
2023/01/19 07:06:56;;;;;;;6.50;1.08;;;;;;;-140.72;100.00;53271.59;6271359;22;19996;-69
2023/01/19 07:09:24;;;;;;;6.07;0.85;;;;;;;-140.72;100.00;53281.75;6272134;22;20049;-68
2023/01/19 07:11:52;;;;;;;5.28;0.95;;;;;;;-140.72;100.00;53271.59;6270963;22;20085;-69
2023/01/19 07:14:18;;;;;;;3.58;1.75;;;;;;;-140.72;100.00;53300.00;6271958;22;19995;-68
2023/01/19 07:16:43;;;;;;;2.95;1.02;;;;;;;-140.72;100.00;53291.88;6272885;22;20014;-69
2023/01/19 07:19:13;;;;;;;3.97;1.50;;;;;;;-140.72;100.00;53281.75;6273045;22;20061;-67
2023/01/19 07:21:38;;;;;;;6.75;1.10;;;;;;;-140.72;100.00;53302.03;6272965;22;20028;-68
2023/01/19 07:24:04;;;;;;;3.90;0.80;;;;;;;-140.72;100.00;53320.31;6272709;22;20418;-69
2023/01/19 07:26:31;;;;;;;2.45;0.68;;;;;;;-140.72;100.00;53308.13;6272635;22;20429;-69
2023/01/19 07:28:56;;;;;;;7.65;1.38;;;;;;;-140.72;100.00;53251.31;6273315;22;19996;-68
2023/01/19 07:31:22;;;;;;;8.15;1.83;;;;;;;-140.72;100.00;53271.59;6273407;22;20010;-69
2023/01/19 07:33:47;;;;;;;3.00;0.73;;;;;;;-140.72;100.00;53281.75;6271868;22;20003;-68
2023/01/19 07:36:13;;;;;;;2.55;0.95;;;;;;;-140.72;100.00;53312.19;6273315;22;20410;-69
2023/01/19 07:38:38;;;;;;;3.67;1.00;;;;;;;-140.72;100.00;53312.19;6272840;22;20028;-68
2023/01/19 07:41:06;;;;;;;2.85;0.68;;;;;;;-140.72;100.00;53338.56;6271162;22;20031;-69
2023/01/19 07:43:33;;;;;;;10.95;1.23;;;;;;;-140.72;100.00;53271.59;6272700;22;20049;-69
2023/01/19 07:46:00;;;;;;;3.05;0.82;;;;;;;-140.72;100.00;53300.00;6273206;22;20003;-69
2023/01/19 07:48:26;;;;;;;3.85;1.15;;;;;;;-140.72;100.00;53306.09;6272078;22;20000;-69
2023/01/19 07:50:52;;;;;;;2.28;0.65;;;;;;;-140.72;100.00;53326.41;6273123;22;20007;-69
2023/01/19 07:53:18;;;;;;;6.53;1.75;;;;;;;-140.72;100.00;53300.00;6272962;22;20000;-70
2023/01/19 07:55:43;;;;;;;3.90;1.70;;;;;;;-140.72;100.00;53295.94;6271812;22;20033;-69
2023/01/19 07:58:09;;;;;;;2.30;0.77;;;;;;;-140.72;100.00;53271.59;6272888;22;20444;-70
2023/01/19 08:00:36;;;;;;;7.45;1.58;;;;;;;-140.72;100.00;53277.69;6272819;22;20283;-70
2023/01/19 08:03:03;;;;;;;5.07;2.05;;;;;;;-140.72;100.00;53271.59;6272798;22;20007;-70
2023/01/19 08:05:30;;;;;;;7.53;1.60;;;;;;;-140.72;100.00;53269.56;6272458;22;20179;-70
2023/01/19 08:07:56;;;;;;;13.90;1.38;;;;;;;-140.72;100.00;53320.31;6273488;22;20027;-70
2023/01/19 08:10:24;;;;;;;8.75;1.23;;;;;;;-140.72;100.00;53275.66;6272531;22;20063;-69
2023/01/19 08:12:54;;;;;;;3.75;1.17;;;;;;;-140.72;100.00;53285.81;6273167;22;20003;-70
2023/01/19 08:15:22;;;;;;;9.25;1.38;;;;;;;-140.72;100.00;53261.44;6272470;22;20402;-69
2023/01/19 08:17:54;;;;;;;3.45;0.75;;;;;;;-140.72;100.00;53241.16;6272901;22;20299;-70
2023/01/19 08:20:22;;;;;;;4.65;1.27;;;;;;;-140.72;100.00;53300.00;6273632;22;20078;-70
2023/01/19 08:22:47;;;;;;;4.72;1.40;;;;;;;-140.72;100.00;53267.53;6272330;22;19996;-70
2023/01/19 08:25:13;;;;;;;3.80;0.73;;;;;;;-140.72;100.00;53300.00;6272027;22;20004;-69
2023/01/19 08:27:44;;;;;;;4.88;1.10;;;;;;;-140.72;100.00;53275.66;6273047;22;20003;-70
2023/01/19 08:30:10;;;;;;;4.03;0.90;;;;;;;-140.72;100.00;53291.88;6272624;22;20376;-70
2023/01/19 08:32:35;;;;;;;9.13;1.02;;;;;;;-140.72;100.00;53271.59;6273515;22;20071;-71
2023/01/19 08:35:05;;;;;;;3.42;1.30;;;;;;;-140.72;100.00;53287.84;6272476;22;20109;-70
2023/01/19 08:37:30;;;;;;;2.80;1.38;;;;;;;-140.72;100.00;53277.69;6272887;22;20058;-70
2023/01/19 08:39:55;;;;;;;3.22;1.25;;;;;;;-140.72;100.00;53316.25;6275293;22;20170;-70
2023/01/19 08:42:21;;;;;;;8.60;1.13;;;;;;;-140.72;100.00;53300.00;6275284;22;20050;-69
2023/01/19 08:44:46;;;;;;;3.50;1.40;;;;;;;-140.72;100.00;53287.84;6274491;22;20411;-70
2023/01/19 08:47:12;;;;;;;2.92;0.75;;;;;;;-140.72;100.00;53291.88;6275577;22;20020;-71
2023/01/19 08:49:38;;;;;;;6.35;0.98;;;;;;;-140.72;100.00;53293.91;6275405;22;20472;-70
2023/01/19 08:52:03;;;;;;;5.50;1.02;;;;;;;-140.72;100.00;53300.00;6274264;22;20006;-70
2023/01/19 08:54:29;;;;;;;8.30;1.73;;;;;;;-140.72;100.00;53304.06;6274730;22;19996;-70
2023/01/19 08:56:54;;;;;;;15.02;2.38;;;;;;;-140.72;100.00;53279.72;6275054;22;20003;-70
2023/01/19 08:59:20;;;;;;;8.02;1.95;;;;;;;-140.72;100.00;53277.69;6274508;22;20129;-70
2023/01/19 09:01:45;;;;;;;13.75;2.15;;;;;;;-140.72;100.00;53285.81;6274618;22;20462;-69
2023/01/19 09:04:11;;;;;;;5.55;2.22;;;;;;;-140.72;100.00;53304.06;6275480;22;20011;-69
2023/01/19 09:06:36;;;;;;;7.75;1.42;;;;;;;-140.72;100.00;53308.13;6274074;22;20003;-69
2023/01/19 09:09:02;;;;;;;1.38;0.90;;;;;;;-140.72;100.00;53281.75;6275073;22;20024;-68
2023/01/19 09:11:28;;;;;;;4.90;1.75;;;;;;;-140.72;100.00;53297.97;6273949;22;19999;-69
2023/01/19 09:13:53;;;;;;;4.65;1.42;;;;;;;-140.72;100.00;53275.66;6274263;22;20000;-69
2023/01/19 09:16:19;;;;;;;3.38;1.05;;;;;;;-140.72;100.00;53302.03;6274254;22;20012;-68
2023/01/19 09:18:44;;;;;;;8.75;1.27;;;;;;;-140.72;100.00;53279.72;6273406;22;20000;-69
2023/01/19 09:21:10;;;;;;;1.23;0.60;;;;;;;-140.72;100.00;53304.06;6274040;22;20008;-69
2023/01/19 09:23:36;;;;;;;2.03;0.80;;;;;;;-140.72;100.00;53263.47;6274309;22;20031;-69
2023/01/19 09:26:03;;;;;;;2.45;1.08;;;;;;;-140.72;100.00;53275.66;6273405;22;19996;-69
2023/01/19 09:28:29;;;;;;;7.07;1.08;;;;;;;-140.72;100.00;53271.59;6271402;22;20004;-69
2023/01/19 09:30:55;;;;;;;5.72;0.80;;;;;;;-140.72;100.00;53273.63;6274865;22;20310;-69
2023/01/19 09:33:24;;;;;;;3.47;0.85;;;;;;;-140.72;100.00;53283.78;6272790;22;20006;-69
2023/01/19 09:35:50;;;;;;;5.00;0.85;;;;;;;-140.72;100.00;53287.84;6274156;22;20078;-69
2023/01/19 09:38:16;;;;;;;10.23;1.92;;;;;;;-140.72;100.00;53267.53;6274264;22;20004;-68
2023/01/19 09:40:51;;;;;;;11.45;1.77;;;;;;;-140.72;100.00;53263.47;6273218;22;20045;-69
2023/01/19 09:43:31;;;;;;;9.13;0.75;;;;;;;-140.72;100.00;53214.78;6274181;22;19996;-68
2023/01/19 09:46:02;;;;;;;9.38;1.10;;;;;;;-140.72;100.00;53257.38;6274429;22;20560;-69
2023/01/19 09:48:44;;;;;;;3.70;1.23;;;;;;;-140.72;100.00;53253.31;6273486;22;20012;-69
2023/01/19 09:51:20;;;;;;;7.55;0.95;;;;;;;-140.72;100.00;53241.16;6274165;22;20002;-69
2023/01/19 09:53:55;;;;;;;8.70;1.17;;;;;;;-140.72;100.00;53291.88;6273508;22;20006;-69
2023/01/19 09:56:22;;;;;;;3.03;0.90;;;;;;;-140.72;100.00;53216.78;6274696;22;20008;-69
2023/01/19 09:58:49;;;;;;;7.95;1.33;;;;;;;-140.72;100.00;53222.88;6274288;22;20007;-69
2023/01/19 10:01:33;;;;;;;1.65;0.60;;;;;;;-140.72;100.00;53255.34;6274225;22;20306;-69
2023/01/19 10:04:15;;;;;;;8.02;0.95;;;;;;;-140.72;100.00;53222.88;6274783;22;20003;-69
2023/01/19 10:06:42;;;;;;;4.38;0.80;;;;;;;-140.72;100.00;53216.78;6274275;22;20000;-70
2023/01/19 10:09:13;;;;;;;1.05;0.43;;;;;;;-140.72;100.00;53210.72;6274696;22;20239;-69
2023/01/19 10:12:15;;;;;;;4.28;0.75;;;;;;;-140.72;100.00;53253.31;6274480;22;20007;-69
2023/01/19 10:14:47;;;;;;;3.55;1.27;;;;;;;-140.72;100.00;53194.47;6204797;22;20004;-69
2023/01/19 10:17:43;;;;;;;2.70;0.68;;;;;;;-140.72;100.00;53239.13;6274758;22;20000;-70
2023/01/19 10:20:32;;;;;;;8.93;1.10;;;;;;;-140.72;100.00;53198.53;6274305;22;20371;-69
2023/01/19 10:23:04;;;;;;;1.63;0.40;;;;;;;-140.72;100.00;53216.78;6273605;22;20000;-69
2023/01/19 10:25:30;;;;;;;4.95;0.40;;;;;;;-140.72;100.00;53226.94;6273405;22;20405;-69
2023/01/19 10:27:59;;;;;;;1.45;0.50;;;;;;;-140.72;100.00;53237.09;6273996;22;19996;-70
2023/01/19 10:30:29;;;;;;;2.05;0.50;;;;;;;-140.72;100.00;53243.19;6273534;22;20000;-70
2023/01/19 10:32:54;;;;;;;;;;;;;;;-140.72;100.00;53216.78;6274878;22;20009;-69
2023/01/19 10:35:23;;;;;;;5.05;0.47;;;;;;;-140.72;100.00;53247.25;6273755;22;19907;-70
2023/01/19 10:37:55;;;;;;;0.85;0.40;;;;;;;-140.72;100.00;53218.81;6272858;22;19999;-70
2023/01/19 10:40:29;;;;;;;0.68;0.52;;;;;;;-140.72;100.00;53222.88;6274323;22;20019;-70
2023/01/19 10:42:56;;;;;;;0.55;0.35;;;;;;;-140.72;100.00;53212.75;6273326;22;20000;-69
2023/01/19 10:45:29;;;;;;;0.95;0.30;;;;;;;-140.72;100.00;53196.50;6274187;22;19995;-70
2023/01/19 10:47:57;;;;;;;2.65;0.63;;;;;;;-140.72;100.00;53206.66;6274651;22;19995;-70
2023/01/19 10:50:26;;;;;;;10.33;0.63;;;;;;;-140.72;100.00;53184.31;6273807;22;20359;-70
2023/01/19 10:52:56;;;;;;;2.08;0.45;;;;;;;-140.72;100.00;53226.94;6274674;22;20006;-70
2023/01/19 10:55:23;;;;;;;0.40;0.30;;;;;;;-140.72;100.00;53226.94;6273832;22;20011;-70
2023/01/19 10:57:51;;;;;;;3.13;0.50;;;;;;;-140.72;100.00;53212.75;6273689;22;20007;-70
2023/01/19 11:00:31;;;;;;;0.55;0.25;;;;;;;-140.72;100.00;53214.78;6273490;22;19999;-70
2023/01/19 11:02:56;;;;;;;0.80;0.60;;;;;;;-140.72;100.00;53226.94;6274500;22;20082;-70
2023/01/19 11:05:28;;;;;;;1.27;0.40;;;;;;;-140.72;100.00;53190.41;6273133;22;20074;-70
2023/01/19 11:07:54;;;;;;;5.15;0.65;;;;;;;-140.72;100.00;53226.94;6274183;22;20002;-70
2023/01/19 11:10:29;;;;;;;2.47;0.63;;;;;;;-140.72;100.00;53190.41;6271666;22;20394;-70
2023/01/19 11:13:11;;;;;;;0.35;0.30;;;;;;;-140.72;100.00;53159.97;6272530;22;20352;-70
2023/01/19 11:15:56;;;;;;;3.03;0.70;;;;;;;-140.72;100.00;53214.78;6272262;22;20061;-70
2023/01/19 11:18:31;;;;;;;2.90;0.47;;;;;;;-140.72;100.00;53166.06;6273306;22;20318;-70
2023/01/19 11:21:01;;;;;;;2.65;0.47;;;;;;;-140.72;100.00;53198.53;6273456;22;20429;-70